createdAt,value
2018-09-25T00:01:04.807Z,5.00
2018-09-25T00:03:38.524Z,5.00
2018-09-25T00:06:13.055Z,6.50
2018-09-25T00:08:46.810Z,5.00
2018-09-25T00:11:20.291Z,5.00
2018-09-25T00:13:53.992Z,5.50
2018-09-25T00:16:28.459Z,7.00
2018-09-25T00:19:02.261Z,6.00
2018-09-25T00:21:35.917Z,5.00
2018-09-25T00:24:09.687Z,5.00
2018-09-25T00:26:44.139Z,6.50
2018-09-25T00:29:17.943Z,5.50
2018-09-25T00:31:51.739Z,4.50
2018-09-25T00:34:25.507Z,5.50
2018-09-25T00:36:59.931Z,7.00
2018-09-25T00:39:33.462Z,3.50
2018-09-25T00:42:07.034Z,4.50
2018-09-25T00:44:40.884Z,4.00
2018-09-25T00:47:15.363Z,5.00
2018-09-25T00:49:48.831Z,5.00
2018-09-25T00:52:22.422Z,5.00
2018-09-25T00:54:55.892Z,5.00
2018-09-25T00:57:30.422Z,4.50
2018-09-25T01:00:04.128Z,7.00
2018-09-25T01:02:37.629Z,5.00
2018-09-25T01:05:11.366Z,5.00
2018-09-25T01:07:45.840Z,5.00
2018-09-25T01:10:19.670Z,5.50
2018-09-25T01:12:53.407Z,7.00
2018-09-25T01:15:26.987Z,6.50
2018-09-25T01:18:01.492Z,5.00
2018-09-25T01:20:35.214Z,5.00
2018-09-25T01:23:08.948Z,6.00
2018-09-25T01:25:42.610Z,7.00
2018-09-25T01:28:17.977Z,6.00
2018-09-25T01:30:51.763Z,7.50
2018-09-25T01:33:25.487Z,5.00
2018-09-25T01:35:59.107Z,7.00
2018-09-25T01:38:33.679Z,8.50
2018-09-25T01:41:07.480Z,6.50
2018-09-25T01:43:41.048Z,5.00
2018-09-25T01:46:14.909Z,5.00
2018-09-25T01:48:49.355Z,7.75
2018-09-25T01:51:23.159Z,7.75
2018-09-25T01:53:56.868Z,7.75
2018-09-25T01:56:30.622Z,6.75
2018-09-25T01:59:05.101Z,5.75
2018-09-25T02:01:38.906Z,7.75
2018-09-25T02:04:12.589Z,7.75
2018-09-25T02:06:46.362Z,6.75
2018-09-25T02:09:20.756Z,7.75
2018-09-25T02:11:54.404Z,7.75
2018-09-25T02:14:27.970Z,7.75
2018-09-25T02:17:01.629Z,7.75
2018-09-25T02:19:35.998Z,8.75
2018-09-25T02:22:09.579Z,9.75
2018-09-25T02:24:43.136Z,7.75
2018-09-25T02:27:16.845Z,8.25
2018-09-25T02:29:52.363Z,8.25
2018-09-25T02:32:26.057Z,7.75
2018-09-25T02:34:59.824Z,5.75
2018-09-25T02:37:33.354Z,7.75
2018-09-25T02:40:07.838Z,10.25
2018-09-25T02:42:41.470Z,7.75
2018-09-25T02:45:15.362Z,7.75
2018-09-25T02:47:49.044Z,7.75
2018-09-25T02:50:23.896Z,9.75
2018-09-25T02:52:57.613Z,9.75
2018-09-25T02:55:31.343Z,8.25
2018-09-25T02:58:05.118Z,7.75
2018-09-25T03:00:39.558Z,9.75
2018-09-25T03:03:13.260Z,6.75
2018-09-25T03:05:47.011Z,10.00
2018-09-25T03:08:20.808Z,7.75
2018-09-25T03:10:55.327Z,11.00
2018-09-25T03:13:29.092Z,8.00
2018-09-25T03:16:02.860Z,8.50
2018-09-25T03:18:36.527Z,9.50
2018-09-25T03:21:11.060Z,8.00
2018-09-25T03:23:44.760Z,10.00
2018-09-25T03:26:18.494Z,10.50
2018-09-25T03:28:52.191Z,8.00
2018-09-25T03:31:27.054Z,10.50
2018-09-25T03:34:00.850Z,8.50
2018-09-25T03:36:34.614Z,9.50
2018-09-25T03:39:08.363Z,10.00
2018-09-25T03:41:43.071Z,13.00
2018-09-25T03:44:16.676Z,12.00
2018-09-25T03:46:56.726Z,11.50
2018-09-25T03:49:30.466Z,12.00
2018-09-25T03:52:05.062Z,12.50
2018-09-25T03:54:38.775Z,13.50
2018-09-25T03:57:12.542Z,10.50
2018-09-25T03:59:46.241Z,11.50
2018-09-25T04:02:20.766Z,11.50
2018-09-25T04:04:54.587Z,11.50
2018-09-25T04:07:28.403Z,12.00
2018-09-25T04:10:02.106Z,10.50
2018-09-25T04:12:36.615Z,11.00
2018-09-25T04:15:10.277Z,12.00
2018-09-25T04:17:44.060Z,12.00
2018-09-25T04:20:17.871Z,11.50
2018-09-25T04:22:52.338Z,12.00
2018-09-25T04:25:26.043Z,9.00
2018-09-25T04:27:59.774Z,12.50
2018-09-25T04:30:33.473Z,12.00
2018-09-25T04:33:08.000Z,12.50
2018-09-25T04:35:41.505Z,11.50
2018-09-25T04:38:15.254Z,12.00
2018-09-25T04:40:49.029Z,11.00
2018-09-25T04:43:23.465Z,12.00
2018-09-25T04:45:57.179Z,12.00
2018-09-25T04:48:31.085Z,12.00
2018-09-25T04:51:04.875Z,11.50
2018-09-25T04:53:43.483Z,11.50
2018-09-25T04:56:17.293Z,13.00
2018-09-25T04:58:51.031Z,10.00
2018-09-25T05:01:24.822Z,10.00
2018-09-25T05:04:00.275Z,12.00
2018-09-25T05:06:34.084Z,10.00
2018-09-25T05:09:07.869Z,14.50
2018-09-25T05:11:41.691Z,12.50
2018-09-25T05:14:16.341Z,10.00
2018-09-25T05:16:50.085Z,10.00
2018-09-25T05:19:23.740Z,10.00
2018-09-25T05:21:57.395Z,12.00
2018-09-25T05:24:32.598Z,9.00
2018-09-25T05:27:06.403Z,11.00
2018-09-25T05:29:40.483Z,12.00
2018-09-25T05:32:14.175Z,13.50
2018-09-25T05:34:49.097Z,9.50
2018-09-25T05:37:22.985Z,11.50
2018-09-25T05:39:56.770Z,14.00
2018-09-25T05:42:30.629Z,13.00
2018-09-25T05:45:05.142Z,14.00
2018-09-25T05:47:38.810Z,13.00
2018-09-25T05:50:12.802Z,14.00
2018-09-25T05:52:46.469Z,11.00
2018-09-25T05:55:24.363Z,10.50
2018-09-25T05:57:58.198Z,12.50
2018-09-25T06:00:32.312Z,10.50
2018-09-25T06:03:06.352Z,14.00
2018-09-25T06:05:41.204Z,11.00
2018-09-25T06:08:15.231Z,12.00
2018-09-25T06:10:49.095Z,13.00
2018-09-25T06:13:23.953Z,14.00
2018-09-25T06:15:59.664Z,10.50
2018-09-25T06:18:34.021Z,8.00
2018-09-25T06:21:07.783Z,12.00
2018-09-25T06:23:41.506Z,12.00
2018-09-25T06:26:18.673Z,11.00
2018-09-25T06:28:52.458Z,13.50
2018-09-25T06:31:26.110Z,10.00
2018-09-25T06:33:59.790Z,7.00
2018-09-25T06:36:36.375Z,8.00
2018-09-25T06:39:11.803Z,12.00
2018-09-25T06:41:45.531Z,15.00
2018-09-25T06:44:19.301Z,13.00
2018-09-25T06:46:53.773Z,14.50
2018-09-25T06:49:27.673Z,11.50
2018-09-25T06:52:01.523Z,12.00
2018-09-25T06:54:35.310Z,13.50
2018-09-25T06:57:09.923Z,14.75
2018-09-25T06:59:43.633Z,14.75
2018-09-25T07:02:17.510Z,16.75
2018-09-25T07:04:51.250Z,18.50
2018-09-25T07:07:25.780Z,18.00
2018-09-25T07:09:59.797Z,12.50
2018-09-25T07:12:33.313Z,16.50
2018-09-25T07:15:06.962Z,17.50
2018-09-25T07:17:43.967Z,18.50
2018-09-25T07:20:17.665Z,13.50
2018-09-25T07:22:51.377Z,15.00
2018-09-25T07:25:25.162Z,15.25
2018-09-25T07:28:03.738Z,16.75
2018-09-25T07:30:37.477Z,14.25
2018-09-25T07:33:11.221Z,13.25
2018-09-25T07:35:44.917Z,13.75
2018-09-25T07:38:19.514Z,12.25
2018-09-25T07:40:53.249Z,12.75
2018-09-25T07:43:27.091Z,16.50
2018-09-25T07:46:00.639Z,17.00
2018-09-25T07:48:35.147Z,12.50
2018-09-25T07:51:08.647Z,11.00
2018-09-25T07:53:42.427Z,13.50
2018-09-25T07:56:16.188Z,12.00
2018-09-25T07:58:51.391Z,12.50
2018-09-25T08:01:25.139Z,12.00
2018-09-25T08:03:58.956Z,10.00
2018-09-25T08:06:32.700Z,15.00
2018-09-25T08:09:08.195Z,10.50
2018-09-25T08:11:41.977Z,12.75
2018-09-25T08:14:15.683Z,9.50
2018-09-25T08:16:49.408Z,12.00
2018-09-25T08:19:26.735Z,10.50
2018-09-25T08:22:00.451Z,12.00
2018-09-25T08:24:34.174Z,12.00
2018-09-25T08:27:08.002Z,12.00
2018-09-25T08:29:43.225Z,9.00
2018-09-25T08:32:17.062Z,8.00
2018-09-25T08:34:50.702Z,10.00
2018-09-25T08:37:24.486Z,10.00
2018-09-25T08:39:58.971Z,8.00
2018-09-25T08:42:32.663Z,7.00
2018-09-25T08:45:06.411Z,11.75
2018-09-25T08:47:40.304Z,8.00
2018-09-25T08:50:16.966Z,11.25
2018-09-25T08:52:50.741Z,8.00
2018-09-25T08:55:24.634Z,7.00
2018-09-25T08:57:58.202Z,8.00
2018-09-25T09:00:33.350Z,6.00
2018-09-25T09:03:07.218Z,6.00
2018-09-25T09:05:40.938Z,5.50
2018-09-25T09:08:14.937Z,5.50
2018-09-25T09:10:49.920Z,5.00
2018-09-25T09:13:23.672Z,5.00
2018-09-25T09:15:57.218Z,3.00
2018-09-25T09:18:30.883Z,2.00
2018-09-25T09:21:05.492Z,3.00
2018-09-25T09:23:39.134Z,3.00
2018-09-25T09:26:12.796Z,1.00
2018-09-25T09:28:46.549Z,1.00
2018-09-25T09:31:22.987Z,3.00
2018-09-25T09:33:56.816Z,1.00
2018-09-25T09:36:30.575Z,0.25
2018-09-25T09:39:04.324Z,0.25
2018-09-25T09:41:39.128Z,0.00
2018-09-25T09:44:12.652Z,0.00
2018-09-25T09:46:46.481Z,0.50
2018-09-25T09:49:20.312Z,1.00
2018-09-25T09:51:54.850Z,1.00
2018-09-25T09:54:28.639Z,3.00
2018-09-25T09:57:02.449Z,1.00
2018-09-25T09:59:36.084Z,0.25
2018-09-25T10:02:11.227Z,1.50
2018-09-25T10:04:44.843Z,0.25
2018-09-25T10:07:18.641Z,1.00
2018-09-25T10:09:52.370Z,1.00
2018-09-25T10:12:31.537Z,1.00
2018-09-25T10:15:05.180Z,0.00
2018-09-25T10:17:38.844Z,0.00
2018-09-25T10:20:12.842Z,0.00
2018-09-25T10:22:47.479Z,0.00
2018-09-25T10:25:21.236Z,0.00
2018-09-25T10:27:55.044Z,1.00
2018-09-25T10:30:28.661Z,0.50
2018-09-25T10:33:03.126Z,0.00
2018-09-25T10:35:36.711Z,1.00
2018-09-25T10:38:10.492Z,0.50
2018-09-25T10:40:44.112Z,0.00
2018-09-25T10:43:22.675Z,0.00
2018-09-25T10:45:56.463Z,0.00
2018-09-25T10:48:30.128Z,0.00
2018-09-25T10:51:03.601Z,0.25
2018-09-25T10:53:38.294Z,0.00
2018-09-25T10:56:11.952Z,0.00
2018-09-25T10:58:45.578Z,0.00
2018-09-25T11:01:19.158Z,0.00
2018-09-25T11:03:53.722Z,0.75
2018-09-25T11:06:27.503Z,0.00
2018-09-25T11:09:01.197Z,0.00
2018-09-25T11:11:35.011Z,0.00
2018-09-25T11:14:09.499Z,0.00
2018-09-25T11:16:43.131Z,0.50
2018-09-25T11:19:16.821Z,0.25
2018-09-25T11:21:50.539Z,1.00
2018-09-25T11:24:27.462Z,0.00
2018-09-25T11:27:01.130Z,0.00
2018-09-25T11:29:34.792Z,0.75
2018-09-25T11:32:08.660Z,0.75
2018-09-25T11:34:43.210Z,1.00
2018-09-25T11:37:16.952Z,0.00
2018-09-25T11:39:50.781Z,0.00
2018-09-25T11:42:24.463Z,0.00
2018-09-25T11:44:58.198Z,0.00
2018-09-25T11:47:31.867Z,0.00
2018-09-25T11:50:05.606Z,0.50
2018-09-25T11:52:39.358Z,0.00
2018-09-25T11:55:13.964Z,0.00
2018-09-25T11:57:47.644Z,0.00
2018-09-25T12:00:21.321Z,0.00
2018-09-25T12:02:55.022Z,0.00
2018-09-25T12:05:29.498Z,0.00
2018-09-25T12:08:03.337Z,0.25
2018-09-25T12:10:37.106Z,0.00
2018-09-25T12:13:10.770Z,0.00
2018-09-25T12:15:45.240Z,0.25
2018-09-25T12:18:18.908Z,0.50
2018-09-25T12:20:52.552Z,0.50
2018-09-25T12:23:26.287Z,0.00
2018-09-25T12:25:59.900Z,1.00
2018-09-25T12:28:33.614Z,0.00
2018-09-25T12:31:07.243Z,0.00
2018-09-25T12:33:41.002Z,0.00
2018-09-25T12:36:16.192Z,1.00
2018-09-25T12:38:49.854Z,0.00
2018-09-25T12:41:23.554Z,1.00
2018-09-25T12:43:57.285Z,0.75
2018-09-25T12:46:34.250Z,1.00
2018-09-25T12:49:07.920Z,0.25
2018-09-25T12:51:41.750Z,0.75
2018-09-25T12:54:15.574Z,0.50
2018-09-25T12:56:50.180Z,1.00
2018-09-25T12:59:23.843Z,0.00
2018-09-25T13:01:57.467Z,1.00
2018-09-25T13:04:30.978Z,0.25
2018-09-25T13:07:06.338Z,1.00
2018-09-25T13:09:40.226Z,1.00
2018-09-25T13:12:13.896Z,1.00
2018-09-25T13:14:47.548Z,1.00
2018-09-25T13:17:23.971Z,1.00
2018-09-25T13:19:58.392Z,1.00
2018-09-25T13:22:32.567Z,1.00
2018-09-25T13:25:06.430Z,1.00
2018-09-25T13:27:42.010Z,1.00
2018-09-25T13:30:15.825Z,1.00
2018-09-25T13:32:49.591Z,1.00
2018-09-25T13:35:23.448Z,1.00
2018-09-25T13:37:59.014Z,1.00
2018-09-25T13:40:32.824Z,1.00
2018-09-25T13:43:06.528Z,1.25
2018-09-25T13:45:40.389Z,1.00
2018-09-25T13:48:14.894Z,1.00
2018-09-25T13:50:48.697Z,1.00
2018-09-25T13:53:22.557Z,1.00
2018-09-25T13:55:56.279Z,0.00
2018-09-25T13:58:30.774Z,1.00
2018-09-25T14:01:04.492Z,1.00
2018-09-25T14:03:38.254Z,0.25
2018-09-25T14:06:11.894Z,2.00
2018-09-25T14:08:47.107Z,1.00
2018-09-25T14:11:20.915Z,2.00
2018-09-25T14:13:54.746Z,2.00
2018-09-25T14:16:28.427Z,1.00
2018-09-25T14:19:03.475Z,2.00
2018-09-25T14:21:37.214Z,2.00
2018-09-25T14:24:10.795Z,1.75
2018-09-25T14:26:44.640Z,2.00
2018-09-25T14:29:19.232Z,1.75
2018-09-25T14:31:53.022Z,1.25
2018-09-25T14:34:26.721Z,2.00
2018-09-25T14:37:00.538Z,1.75
2018-09-25T14:39:34.410Z,2.00
2018-09-25T14:42:08.169Z,1.00
2018-09-25T14:44:41.866Z,1.25
2018-09-25T14:47:15.727Z,1.00
2018-09-25T14:49:50.272Z,1.75
2018-09-25T14:52:24.007Z,1.75
2018-09-25T14:54:57.800Z,1.50
2018-09-25T14:57:31.429Z,1.50
2018-09-25T15:00:06.900Z,1.00
2018-09-25T15:02:40.662Z,2.00
2018-09-25T15:05:14.274Z,2.00
2018-09-25T15:07:47.916Z,1.75
2018-09-25T15:10:22.390Z,2.00
2018-09-25T15:12:56.072Z,2.00
2018-09-25T15:15:29.761Z,2.00
2018-09-25T15:18:03.591Z,1.75
2018-09-25T15:20:38.063Z,2.00
2018-09-25T15:23:11.755Z,2.00
2018-09-25T15:25:45.491Z,2.00
2018-09-25T15:28:19.390Z,2.00
2018-09-25T15:30:53.788Z,2.00
2018-09-25T15:33:27.739Z,2.00
2018-09-25T15:36:01.508Z,2.00
2018-09-25T15:38:35.261Z,3.50
2018-09-25T15:41:09.968Z,2.00
2018-09-25T15:43:43.635Z,2.00
2018-09-25T15:46:17.488Z,1.00
2018-09-25T15:48:51.268Z,1.50
2018-09-25T15:51:25.789Z,1.25
2018-09-25T15:53:59.607Z,1.25
2018-09-25T15:56:33.300Z,2.00
2018-09-25T15:59:07.022Z,1.00
2018-09-25T16:01:45.810Z,1.00
2018-09-25T16:04:19.580Z,1.50
2018-09-25T16:06:53.178Z,1.25
2018-09-25T16:09:26.955Z,1.00
2018-09-25T16:12:00.686Z,1.75
2018-09-25T16:14:34.381Z,1.75
2018-09-25T16:17:08.003Z,1.00
2018-09-25T16:19:41.731Z,1.00
2018-09-25T16:22:16.130Z,1.00
2018-09-25T16:24:49.869Z,1.00
2018-09-25T16:27:23.569Z,1.00
2018-09-25T16:29:57.326Z,0.75
2018-09-25T16:32:31.884Z,1.00
2018-09-25T16:35:05.659Z,2.00
2018-09-25T16:37:39.232Z,1.00
2018-09-25T16:40:13.059Z,1.00
2018-09-25T16:42:47.588Z,1.25
2018-09-25T16:45:21.192Z,1.75
2018-09-25T16:47:54.845Z,2.00
2018-09-25T16:50:28.668Z,2.00
2018-09-25T16:53:02.383Z,2.00
2018-09-25T16:55:35.908Z,0.25
2018-09-25T16:58:09.674Z,0.25
2018-09-25T17:00:43.332Z,0.00
2018-09-25T17:03:18.577Z,0.00
2018-09-25T17:05:52.361Z,0.00
2018-09-25T17:08:26.044Z,1.00
2018-09-25T17:10:59.697Z,1.00
2018-09-25T17:13:33.487Z,1.00
2018-09-25T17:16:07.284Z,1.00
2018-09-25T17:18:41.017Z,3.25
2018-09-25T17:21:14.856Z,2.75
2018-09-25T17:23:49.240Z,2.75
2018-09-25T17:26:22.727Z,2.75
2018-09-25T17:28:56.512Z,3.00
2018-09-25T17:31:30.222Z,3.00
2018-09-25T17:34:04.652Z,1.00
2018-09-25T17:36:38.153Z,2.00
2018-09-25T17:39:13.866Z,3.25
2018-09-25T17:41:48.111Z,4.00
2018-09-25T17:44:23.318Z,3.00
2018-09-25T17:46:56.998Z,3.25
2018-09-25T17:49:30.674Z,3.50
2018-09-25T17:52:04.432Z,4.50
2018-09-25T17:56:58.199Z,2.00
2018-09-25T17:59:31.973Z,2.50
2018-09-25T18:02:05.656Z,5.25
2018-09-25T18:04:39.394Z,3.00
2018-09-25T18:07:13.262Z,4.00
2018-09-25T18:09:46.965Z,6.00
2018-09-25T18:12:20.799Z,7.00
2018-09-25T18:14:55.844Z,7.75
2018-09-25T18:17:29.622Z,7.75
2018-09-25T18:20:03.318Z,6.00
2018-09-25T18:22:37.033Z,8.50
2018-09-25T18:25:12.420Z,8.00
2018-09-25T18:27:46.326Z,7.50
2018-09-25T18:30:46.328Z,7.75
2018-09-25T18:33:20.149Z,6.00
2018-09-25T18:35:53.707Z,7.00
2018-09-25T18:38:29.227Z,6.25
2018-09-25T18:41:02.893Z,9.00
2018-09-25T18:43:36.547Z,6.00
2018-09-25T18:46:10.248Z,6.00
2018-09-25T18:48:45.216Z,6.50
2018-09-25T18:51:19.051Z,6.00
2018-09-25T18:53:52.682Z,5.50
2018-09-25T18:56:26.420Z,7.50
2018-09-25T18:59:03.447Z,7.00
2018-09-25T19:01:37.081Z,4.75
2018-09-25T19:04:10.923Z,5.50
2018-09-25T19:06:44.675Z,6.00
2018-09-25T19:09:19.314Z,10.50
2018-09-25T19:11:52.962Z,10.00
2018-09-25T19:14:26.781Z,10.25
2018-09-25T19:17:00.602Z,9.50
2018-09-25T19:19:35.087Z,8.00
2018-09-25T19:22:08.884Z,6.50
2018-09-25T19:24:42.678Z,6.00
2018-09-25T19:27:16.329Z,10.00
2018-09-25T19:29:50.794Z,10.00
2018-09-25T19:32:24.518Z,8.50
2018-09-25T19:34:58.368Z,7.00
2018-09-25T19:37:32.047Z,9.50
2018-09-25T19:40:08.756Z,10.00
2018-09-25T19:42:42.369Z,10.00
2018-09-25T19:45:16.044Z,10.00
2018-09-25T19:47:49.656Z,11.00
2018-09-25T19:50:24.183Z,13.00
2018-09-25T19:52:57.938Z,13.00
2018-09-25T19:55:31.643Z,12.75
2018-09-25T19:58:05.336Z,13.00
2018-09-25T20:00:39.899Z,15.50
2018-09-25T20:03:13.519Z,14.00
2018-09-25T20:05:47.442Z,14.00
2018-09-25T20:08:21.184Z,15.00
2018-09-25T20:10:57.182Z,17.00
2018-09-25T20:13:30.903Z,13.75
2018-09-25T20:16:04.577Z,12.00
2018-09-25T20:18:38.319Z,10.00
2018-09-25T20:21:16.001Z,11.50
2018-09-25T20:23:49.677Z,13.75
2018-09-25T20:26:23.313Z,10.00
2018-09-25T20:28:57.090Z,11.00
2018-09-25T20:31:32.044Z,12.00
2018-09-25T20:34:05.736Z,13.75
2018-09-25T20:36:39.450Z,13.00
2018-09-25T20:39:13.700Z,14.00
2018-09-25T20:41:48.797Z,13.00
2018-09-25T20:44:22.920Z,16.50
2018-09-25T20:46:56.652Z,12.00
2018-09-25T20:49:30.331Z,14.00
2018-09-25T20:52:05.157Z,14.00
2018-09-25T20:54:38.869Z,15.25
2018-09-25T20:57:12.696Z,14.00
2018-09-25T20:59:46.339Z,13.00
2018-09-25T21:02:20.734Z,15.75
2018-09-25T21:04:54.364Z,14.50
2018-09-25T21:07:28.076Z,15.00
2018-09-25T21:10:01.901Z,12.00
2018-09-25T21:12:36.420Z,13.50
2018-09-25T21:15:10.391Z,15.00
2018-09-25T21:17:43.915Z,14.00
2018-09-25T21:20:17.654Z,12.50
2018-09-25T21:22:52.138Z,14.50
2018-09-25T21:25:25.916Z,14.00
2018-09-25T21:27:59.707Z,14.50
2018-09-25T21:30:33.382Z,10.50
2018-09-25T21:33:07.064Z,14.00
2018-09-25T21:35:40.850Z,14.00
2018-09-25T21:38:14.741Z,14.50
2018-09-25T21:40:48.421Z,15.50
2018-09-25T21:43:22.268Z,12.00
2018-09-25T21:45:55.889Z,14.00
2018-09-25T21:48:29.552Z,12.00
2018-09-25T21:51:03.478Z,14.00
2018-09-25T21:53:38.924Z,13.50
2018-09-25T21:56:12.701Z,13.00
2018-09-25T21:58:46.488Z,14.00
2018-09-25T22:01:20.132Z,12.00
2018-09-25T22:03:54.621Z,14.50
2018-09-25T22:06:28.403Z,14.00
2018-09-25T22:09:02.139Z,12.50
2018-09-25T22:11:35.985Z,14.00
2018-09-25T22:14:10.811Z,12.50
2018-09-25T22:16:44.627Z,18.00
2018-09-25T22:19:18.327Z,17.00
2018-09-25T22:21:52.059Z,14.50
2018-09-25T22:24:26.520Z,15.50
2018-09-25T22:27:00.242Z,18.00
2018-09-25T22:29:34.024Z,12.50
2018-09-25T22:32:07.859Z,14.50
2018-09-25T22:34:41.691Z,15.00
2018-09-25T22:37:15.472Z,16.00
2018-09-25T22:39:49.273Z,18.00
2018-09-25T22:42:23.076Z,14.50
2018-09-25T22:44:58.060Z,15.00
2018-09-25T22:47:31.771Z,18.50
2018-09-25T22:50:05.520Z,16.00
2018-09-25T22:52:39.221Z,15.00
2018-09-25T22:55:13.654Z,17.00
2018-09-25T22:57:47.236Z,18.50
2018-09-25T23:00:20.845Z,16.00
2018-09-25T23:02:54.543Z,14.00
2018-09-25T23:05:28.368Z,15.50
2018-09-25T23:08:01.970Z,21.75
2018-09-25T23:10:35.610Z,14.00
2018-09-25T23:13:09.257Z,20.00
2018-09-25T23:15:43.709Z,17.00
2018-09-25T23:18:17.242Z,14.50
2018-09-25T23:20:50.875Z,18.00
2018-09-25T23:23:24.700Z,18.50
2018-09-25T23:25:59.830Z,16.00
2018-09-25T23:28:33.676Z,17.00
2018-09-25T23:31:07.508Z,14.00
2018-09-25T23:33:41.368Z,16.50
2018-09-25T23:36:15.755Z,14.75
2018-09-25T23:38:49.565Z,15.50
2018-09-25T23:41:28.055Z,15.25
2018-09-25T23:44:14.363Z,19.00
2018-09-25T23:46:49.814Z,16.75
2018-09-25T23:49:23.184Z,18.00
2018-09-25T23:51:58.974Z,17.50
2018-09-25T23:54:36.326Z,16.75
2018-09-25T23:57:23.965Z,17.75
